Station Historical Data
Daily Summary for June 20, 2012 Units:  Both    English   Metric
« Previous Day
Next Day »
Daily Weekly Monthly Yearly Custom
  High: Low: Average:
Temperature: 88.1 °F /  31.2 °C 66.1 °F /  18.9 °C 77.9 °F /  25.5 °C
Dew Point: 68.6 °F /  20.3 °C 62.0 °F /  16.7 °C 64.8 °F /  18.2 °C
Humidity: 89% 44% 66%
Wind Speed: 13.0mph /  20.9km/h - 2.6mph /  4.2km/h
Wind Gust: 13.0mph /  20.9km/h - -
Wind- - SE
Pressure: 30.10 in /  1019.2 hPa 29.98 in /  1015.1 hPa -
Precipitation: 0.00 in /  0 mm    
Historical Graphs
 
 
Tabular Data for June 20, 2012
Time Temperature Dew Point Pressure Wind Wind Speed Wind Gust Humidity Rainfall Rate (Hourly) Conditions
00:00 73.7 °F /  23.2 °C 65.3 °F /  18.5 °C 30.05in /  1017.5hPa ESE 1.0mph /  1.6km/h 2.0mph /  3.2km/h 75% 0.00in /  0mm
00:01 73.8 °F /  23.2 °C 65.4 °F /  18.6 °C 30.05in /  1017.5hPa ESE 1.0mph /  1.6km/h 2.0mph /  3.2km/h 75% 0.00in /  0mm
00:06 73.9 °F /  23.3 °C 65.1 °F /  18.4 °C 30.05in /  1017.5hPa ESE 1.0mph /  1.6km/h 2.0mph /  3.2km/h 74% 0.00in /  0mm
00:11 73.9 °F /  23.3 °C 65.1 °F /  18.4 °C 30.05in /  1017.5hPa ESE 1.0mph /  1.6km/h 2.0mph /  3.2km/h 74% 0.00in /  0mm
00:16 73.6 °F /  23.1 °C 64.8 °F /  18.2 °C 30.05in /  1017.5hPa SE 2.0mph /  3.2km/h 2.0mph /  3.2km/h 74% 0.00in /  0mm
00:21 73.8 °F /  23.2 °C 65.0 °F /  18.3 °C 30.05in /  1017.5hPa ESE 3.0mph /  4.8km/h 3.0mph /  4.8km/h 74% 0.00in /  0mm
00:26 73.9 °F /  23.3 °C 65.1 °F /  18.4 °C 30.05in /  1017.5hPa ESE 2.0mph /  3.2km/h 3.0mph /  4.8km/h 74% 0.00in /  0mm
00:31 73.5 °F /  23.1 °C 64.7 °F /  18.2 °C 30.05in /  1017.5hPa ESE 1.0mph /  1.6km/h 2.0mph /  3.2km/h 74% 0.00in /  0mm
00:36 73.3 °F /  22.9 °C 64.5 °F /  18.1 °C 30.05in /  1017.5hPa ESE 1.0mph /  1.6km/h 1.0mph /  1.6km/h 74% 0.00in /  0mm
00:41 73.3 °F /  22.9 °C 64.9 °F /  18.3 °C 30.05in /  1017.5hPa SE 1.0mph /  1.6km/h 2.0mph /  3.2km/h 75% 0.00in /  0mm
00:46 73.1 °F /  22.8 °C 64.7 °F /  18.2 °C 30.05in /  1017.5hPa ESE 1.0mph /  1.6km/h 3.0mph /  4.8km/h 75% 0.00in /  0mm
00:51 73.1 °F /  22.8 °C 64.7 °F /  18.2 °C 30.05in /  1017.5hPa SE 1.0mph /  1.6km/h 1.0mph /  1.6km/h 75% 0.00in /  0mm
00:56 72.8 °F /  22.7 °C 64.8 °F /  18.2 °C 30.05in /  1017.5hPa SE 1.0mph /  1.6km/h 1.0mph /  1.6km/h 76% 0.00in /  0mm
01:01 72.6 °F /  22.6 °C 64.6 °F /  18.1 °C 30.05in /  1017.5hPa ESE 2.0mph /  3.2km/h 2.0mph /  3.2km/h 76% 0.00in /  0mm
01:06 72.7 °F /  22.6 °C 64.7 °F /  18.2 °C 30.05in /  1017.5hPa ESE 2.0mph /  3.2km/h 2.0mph /  3.2km/h 76% 0.00in /  0mm
01:11 72.9 °F /  22.7 °C 64.5 °F /  18.1 °C 30.05in /  1017.5hPa ESE 1.0mph /  1.6km/h 2.0mph /  3.2km/h 75% 0.00in /  0mm
01:16 72.9 °F /  22.7 °C 64.5 °F /  18.1 °C 30.05in /  1017.5hPa ESE 1.0mph /  1.6km/h 2.0mph /  3.2km/h 75% 0.00in /  0mm
01:21 72.5 °F /  22.5 °C 64.5 °F /  18.1 °C 30.05in /  1017.5hPa SE 1.0mph /  1.6km/h 2.0mph /  3.2km/h 76% 0.00in /  0mm
01:26 72.4 °F /  22.4 °C 64.4 °F /  18 °C 30.05in /  1017.5hPa ESE 1.0mph /  1.6km/h 2.0mph /  3.2km/h 76% 0.00in /  0mm
01:31 72.4 °F /  22.4 °C 64.4 °F /  18 °C 30.05in /  1017.5hPa ESE 1.0mph /  1.6km/h 2.0mph /  3.2km/h 76% 0.00in /  0mm
01:36 72.6 °F /  22.6 °C 64.2 °F /  17.9 °C 30.05in /  1017.5hPa SE 1.0mph /  1.6km/h 2.0mph /  3.2km/h 75% 0.00in /  0mm
01:41 72.6 °F /  22.6 °C 64.2 °F /  17.9 °C 30.05in /  1017.5hPa ESE 2.0mph /  3.2km/h 3.0mph /  4.8km/h 75% 0.00in /  0mm
01:46 72.7 °F /  22.6 °C 64.3 °F /  17.9 °C 30.05in /  1017.5hPa ESE 2.0mph /  3.2km/h 3.0mph /  4.8km/h 75% 0.00in /  0mm
01:51 72.7 °F /  22.6 °C 64.3 °F /  17.9 °C 30.05in /  1017.5hPa ESE 3.0mph /  4.8km/h 3.0mph /  4.8km/h 75% 0.00in /  0mm
01:56 72.8 °F /  22.7 °C 64.0 °F /  17.8 °C 30.04in /  1017.2hPa ESE 3.0mph /  4.8km/h 3.0mph /  4.8km/h 74% 0.00in /  0mm
02:01 72.8 °F /  22.7 °C 64.0 °F /  17.8 °C 30.05in /  1017.5hPa SE 3.0mph /  4.8km/h 3.0mph /  4.8km/h 74% 0.00in /  0mm
02:06 72.7 °F /  22.6 °C 63.9 °F /  17.7 °C 30.05in /  1017.5hPa SE 2.0mph /  3.2km/h 3.0mph /  4.8km/h 74% 0.00in /  0mm
02:11 72.5 °F /  22.5 °C 64.1 °F /  17.8 °C 30.04in /  1017.2hPa ESE 2.0mph /  3.2km/h 2.0mph /  3.2km/h 75% 0.00in /  0mm
02:16 72.2 °F /  22.3 °C 64.2 °F /  17.9 °C 30.04in /  1017.2hPa ESE 2.0mph /  3.2km/h 3.0mph /  4.8km/h 76% 0.00in /  0mm
02:21 72.1 °F /  22.3 °C 64.1 °F /  17.8 °C 30.04in /  1017.2hPa SE 1.0mph /  1.6km/h 3.0mph /  4.8km/h 76% 0.00in /  0mm
02:26 72.1 °F /  22.3 °C 64.1 °F /  17.8 °C 30.04in /  1017.2hPa SE 1.0mph /  1.6km/h 2.0mph /  3.2km/h 76% 0.00in /  0mm
02:32 72.1 °F /  22.3 °C 64.1 °F /  17.8 °C 30.04in /  1017.2hPa SE 2.0mph /  3.2km/h 2.0mph /  3.2km/h 76% 0.00in /  0mm
02:37 72.2 °F /  22.3 °C 64.2 °F /  17.9 °C 30.04in /  1017.2hPa ESE 2.0mph /  3.2km/h 3.0mph /  4.8km/h 76% 0.00in /  0mm
02:42 72.1 °F /  22.3 °C 64.1 °F /  17.8 °C 30.04in /  1017.2hPa ESE 2.0mph /  3.2km/h 2.0mph /  3.2km/h 76% 0.00in /  0mm
02:47 71.9 °F /  22.2 °C 63.9 °F /  17.7 °C 30.04in /  1017.2hPa ESE 2.0mph /  3.2km/h 2.0mph /  3.2km/h 76% 0.00in /  0mm
02:52 71.8 °F /  22.1 °C 64.2 °F /  17.9 °C 30.04in /  1017.2hPa ESE 2.0mph /  3.2km/h 3.0mph /  4.8km/h 77% 0.00in /  0mm
02:57 71.7 °F /  22.1 °C 64.1 °F /  17.8 °C 30.04in /  1017.2hPa SE 2.0mph /  3.2km/h 3.0mph /  4.8km/h 77% 0.00in /  0mm
03:02 71.5 °F /  21.9 °C 63.9 °F /  17.7 °C 30.04in /  1017.2hPa SE 1.0mph /  1.6km/h 2.0mph /  3.2km/h 77% 0.00in /  0mm
03:07 71.2 °F /  21.8 °C 63.6 °F /  17.6 °C 30.03in /  1016.8hPa SE 3.0mph /  4.8km/h 4.0mph /  6.4km/h 77% 0.00in /  0mm
03:12 71.4 °F /  21.9 °C 63.8 °F /  17.7 °C 30.03in /  1016.8hPa ESE 3.0mph /  4.8km/h 4.0mph /  6.4km/h 77% 0.00in /  0mm
03:17 71.1 °F /  21.7 °C 63.9 °F /  17.7 °C 30.03in /  1016.8hPa ESE 3.0mph /  4.8km/h 4.0mph /  6.4km/h 78% 0.00in /  0mm
03:22 71.1 °F /  21.7 °C 63.9 °F /  17.7 °C 30.03in /  1016.8hPa East 2.0mph /  3.2km/h 3.0mph /  4.8km/h 78% 0.00in /  0mm
03:27 70.9 °F /  21.6 °C 63.7 °F /  17.6 °C 30.03in /  1016.8hPa East 2.0mph /  3.2km/h 3.0mph /  4.8km/h 78% 0.00in /  0mm
03:32 70.8 °F /  21.6 °C 64.0 °F /  17.8 °C 30.04in /  1017.2hPa East 2.0mph /  3.2km/h 2.0mph /  3.2km/h 79% 0.00in /  0mm
03:37 70.7 °F /  21.5 °C 63.9 °F /  17.7 °C 30.03in /  1016.8hPa East 2.0mph /  3.2km/h 3.0mph /  4.8km/h 79% 0.00in /  0mm
03:42 70.5 °F /  21.4 °C 63.7 °F /  17.6 °C 30.04in /  1017.2hPa ESE 2.0mph /  3.2km/h 2.0mph /  3.2km/h 79% 0.00in /  0mm
03:47 70.3 °F /  21.3 °C 63.8 °F /  17.7 °C 30.03in /  1016.8hPa East 2.0mph /  3.2km/h 2.0mph /  3.2km/h 80% 0.00in /  0mm
03:52 70.2 °F /  21.2 °C 63.8 °F /  17.7 °C 30.04in /  1017.2hPa ESE 3.0mph /  4.8km/h 3.0mph /  4.8km/h 80% 0.00in /  0mm
03:57 70.2 °F /  21.2 °C 64.1 °F /  17.8 °C 30.04in /  1017.2hPa ESE 2.0mph /  3.2km/h 3.0mph /  4.8km/h 81% 0.00in /  0mm
04:02 70.1 °F /  21.2 °C 64.0 °F /  17.8 °C 30.04in /  1017.2hPa East 3.0mph /  4.8km/h 4.0mph /  6.4km/h 81% 0.00in /  0mm
04:07 70.0 °F /  21.1 °C 63.9 °F /  17.7 °C 30.04in /  1017.2hPa East 3.0mph /  4.8km/h 4.0mph /  6.4km/h 81% 0.00in /  0mm
04:12 70.0 °F /  21.1 °C 63.9 °F /  17.7 °C 30.04in /  1017.2hPa East 2.0mph /  3.2km/h 3.0mph /  4.8km/h 81% 0.00in /  0mm
04:17 69.9 °F /  21.1 °C 63.8 °F /  17.7 °C 30.04in /  1017.2hPa East 3.0mph /  4.8km/h 4.0mph /  6.4km/h 81% 0.00in /  0mm
04:22 69.8 °F /  21 °C 64.1 °F /  17.8 °C 30.04in /  1017.2hPa East 2.0mph /  3.2km/h 3.0mph /  4.8km/h 82% 0.00in /  0mm
04:27 69.6 °F /  20.9 °C 63.9 °F /  17.7 °C 30.04in /  1017.2hPa Calm   2.0mph /  3.2km/h 82% 0.00in /  0mm
04:32 69.1 °F /  20.6 °C 63.4 °F /  17.4 °C 30.04in /  1017.2hPa Calm     82% 0.00in /  0mm
04:37 68.5 °F /  20.3 °C 63.5 °F /  17.5 °C 30.04in /  1017.2hPa Calm   1.0mph /  1.6km/h 84% 0.00in /  0mm
04:42 68.4 °F /  20.2 °C 63.7 °F /  17.6 °C 30.04in /  1017.2hPa ESE 1.0mph /  1.6km/h 2.0mph /  3.2km/h 85% 0.00in /  0mm
04:47 68.5 °F /  20.3 °C 63.8 °F /  17.7 °C 30.04in /  1017.2hPa Calm   2.0mph /  3.2km/h 85% 0.00in /  0mm
04:52 68.3 °F /  20.2 °C 63.3 °F /  17.4 °C 30.04in /  1017.2hPa Calm   1.0mph /  1.6km/h 84% 0.00in /  0mm
04:57 67.8 °F /  19.9 °C 63.1 °F /  17.3 °C 30.05in /  1017.5hPa Calm     85% 0.00in /  0mm
05:02 67.3 °F /  19.6 °C 63.0 °F /  17.2 °C 30.05in /  1017.5hPa Calm     86% 0.00in /  0mm
05:07 67.1 °F /  19.5 °C 62.8 °F /  17.1 °C 30.05in /  1017.5hPa Calm     86% 0.00in /  0mm
05:12 66.6 °F /  19.2 °C 62.6 °F /  17 °C 30.05in /  1017.5hPa Calm   1.0mph /  1.6km/h 87% 0.00in /  0mm
05:18 66.3 °F /  19.1 °C 62.6 °F /  17 °C 30.05in /  1017.5hPa Calm     88% 0.00in /  0mm
05:23 66.1 °F /  18.9 °C 62.8 °F /  17.1 °C 30.05in /  1017.5hPa East 2.0mph /  3.2km/h 3.0mph /  4.8km/h 89% 0.00in /  0mm
05:28 67.0 °F /  19.4 °C 63.3 °F /  17.4 °C 30.06in /  1017.8hPa East 3.0mph /  4.8km/h 3.0mph /  4.8km/h 88% 0.00in /  0mm
05:33 67.6 °F /  19.8 °C 63.3 °F /  17.4 °C 30.06in /  1017.8hPa ESE 3.0mph /  4.8km/h 4.0mph /  6.4km/h 86% 0.00in /  0mm
05:38 67.7 °F /  19.8 °C 63.4 °F /  17.4 °C 30.06in /  1017.8hPa ESE 2.0mph /  3.2km/h 5.0mph /  8km/h 86% 0.00in /  0mm
05:43 67.6 °F /  19.8 °C 63.3 °F /  17.4 °C 30.06in /  1017.8hPa ESE 2.0mph /  3.2km/h 3.0mph /  4.8km/h 86% 0.00in /  0mm
05:48 67.5 °F /  19.7 °C 63.2 °F /  17.3 °C 30.06in /  1017.8hPa ESE 2.0mph /  3.2km/h 4.0mph /  6.4km/h 86% 0.00in /  0mm
05:53 67.3 °F /  19.6 °C 63.0 °F /  17.2 °C 30.06in /  1017.8hPa ESE 2.0mph /  3.2km/h 3.0mph /  4.8km/h 86% 0.00in /  0mm
05:58 67.2 °F /  19.6 °C 63.2 °F /  17.3 °C 30.06in /  1017.8hPa ESE 1.0mph /  1.6km/h 3.0mph /  4.8km/h 87% 0.00in /  0mm
06:03 66.9 °F /  19.4 °C 62.9 °F /  17.2 °C 30.06in /  1017.8hPa ESE 2.0mph /  3.2km/h 3.0mph /  4.8km/h 87% 0.00in /  0mm
06:08 66.7 °F /  19.3 °C 63.0 °F /  17.2 °C 30.06in /  1017.8hPa ESE 3.0mph /  4.8km/h 3.0mph /  4.8km/h 88% 0.00in /  0mm
06:13 66.5 °F /  19.2 °C 62.8 °F /  17.1 °C 30.07in /  1018.2hPa ESE 2.0mph /  3.2km/h 4.0mph /  6.4km/h 88% 0.00in /  0mm
06:18 66.3 °F /  19.1 °C 62.6 °F /  17 °C 30.07in /  1018.2hPa East 2.0mph /  3.2km/h 3.0mph /  4.8km/h 88% 0.00in /  0mm
06:23 66.4 °F /  19.1 °C 62.7 °F /  17.1 °C 30.07in /  1018.2hPa ESE 2.0mph /  3.2km/h 3.0mph /  4.8km/h 88% 0.00in /  0mm
06:28 66.3 °F /  19.1 °C 62.6 °F /  17 °C 30.07in /  1018.2hPa ESE 3.0mph /  4.8km/h 4.0mph /  6.4km/h 88% 0.00in /  0mm
06:33 66.2 °F /  19 °C 62.5 °F /  16.9 °C 30.07in /  1018.2hPa ESE 3.0mph /  4.8km/h 5.0mph /  8km/h 88% 0.00in /  0mm
06:38 66.4 °F /  19.1 °C 62.7 °F /  17.1 °C 30.07in /  1018.2hPa East 3.0mph /  4.8km/h 4.0mph /  6.4km/h 88% 0.00in /  0mm
06:43 66.5 °F /  19.2 °C 62.8 °F /  17.1 °C 30.07in /  1018.2hPa East 3.0mph /  4.8km/h 4.0mph /  6.4km/h 88% 0.00in /  0mm
06:48 66.6 °F /  19.2 °C 62.9 °F /  17.2 °C 30.07in /  1018.2hPa East 1.0mph /  1.6km/h 2.0mph /  3.2km/h 88% 0.00in /  0mm
06:53 66.6 °F /  19.2 °C 62.9 °F /  17.2 °C 30.07in /  1018.2hPa Calm   1.0mph /  1.6km/h 88% 0.00in /  0mm
06:58 66.6 °F /  19.2 °C 62.6 °F /  17 °C 30.07in /  1018.2hPa Calm   1.0mph /  1.6km/h 87% 0.00in /  0mm
07:03 66.3 °F /  19.1 °C 62.3 °F /  16.8 °C 30.08in /  1018.5hPa ENE 1.0mph /  1.6km/h 1.0mph /  1.6km/h 87% 0.00in /  0mm
07:08 66.2 °F /  19 °C 62.5 °F /  16.9 °C 30.08in /  1018.5hPa ENE 1.0mph /  1.6km/h 1.0mph /  1.6km/h 88% 0.00in /  0mm
07:13 66.5 °F /  19.2 °C 62.8 °F /  17.1 °C 30.08in /  1018.5hPa East 1.0mph /  1.6km/h 2.0mph /  3.2km/h 88% 0.00in /  0mm
07:18 67.1 °F /  19.5 °C 63.1 °F /  17.3 °C 30.08in /  1018.5hPa ESE 1.0mph /  1.6km/h 2.0mph /  3.2km/h 87% 0.00in /  0mm
07:23 67.6 °F /  19.8 °C 63.3 °F /  17.4 °C 30.08in /  1018.5hPa East 1.0mph /  1.6km/h 2.0mph /  3.2km/h 86% 0.00in /  0mm
07:28 68.1 °F /  20.1 °C 63.4 °F /  17.4 °C 30.08in /  1018.5hPa ESE 3.0mph /  4.8km/h 3.0mph /  4.8km/h 85% 0.00in /  0mm
07:33 68.5 °F /  20.3 °C 63.5 °F /  17.5 °C 30.08in /  1018.5hPa East 3.0mph /  4.8km/h 3.0mph /  4.8km/h 84% 0.00in /  0mm
07:38 69.0 °F /  20.6 °C 64.0 °F /  17.8 °C 30.08in /  1018.5hPa East 2.0mph /  3.2km/h 3.0mph /  4.8km/h 84% 0.00in /  0mm
07:43 69.5 °F /  20.8 °C 64.5 °F /  18.1 °C 30.08in /  1018.5hPa ESE 1.0mph /  1.6km/h 2.0mph /  3.2km/h 84% 0.00in /  0mm
07:48 69.9 °F /  21.1 °C 64.2 °F /  17.9 °C 30.08in /  1018.5hPa ESE 4.0mph /  6.4km/h 4.0mph /  6.4km/h 82% 0.00in /  0mm
07:53 70.3 °F /  21.3 °C 64.9 °F /  18.3 °C 30.08in /  1018.5hPa ESE 3.0mph /  4.8km/h 4.0mph /  6.4km/h 83% 0.00in /  0mm
07:58 70.6 °F /  21.4 °C 64.1 °F /  17.8 °C 30.09in /  1018.8hPa ESE 4.0mph /  6.4km/h 6.0mph /  9.7km/h 80% 0.00in /  0mm
08:03 70.8 °F /  21.6 °C 64.3 °F /  17.9 °C 30.09in /  1018.8hPa East 4.0mph /  6.4km/h 7.0mph /  11.3km/h 80% 0.00in /  0mm
08:08 71.0 °F /  21.7 °C 64.5 °F /  18.1 °C 30.09in /  1018.8hPa SE 4.0mph /  6.4km/h 6.0mph /  9.7km/h 80% 0.00in /  0mm
08:13 71.2 °F /  21.8 °C 64.4 °F /  18 °C 30.09in /  1018.8hPa ESE 3.0mph /  4.8km/h 7.0mph /  11.3km/h 79% 0.00in /  0mm
08:18 71.5 °F /  21.9 °C 64.3 °F /  17.9 °C 30.09in /  1018.8hPa SE 4.0mph /  6.4km/h 6.0mph /  9.7km/h 78% 0.00in /  0mm
08:23 71.8 °F /  22.1 °C 64.6 °F /  18.1 °C 30.09in /  1018.8hPa ESE 4.0mph /  6.4km/h 7.0mph /  11.3km/h 78% 0.00in /  0mm
08:28 72.2 °F /  22.3 °C 64.2 °F /  17.9 °C 30.09in /  1018.8hPa East 4.0mph /  6.4km/h 6.0mph /  9.7km/h 76% 0.00in /  0mm
08:33 72.6 °F /  22.6 °C 64.6 °F /  18.1 °C 30.09in /  1018.8hPa ESE 4.0mph /  6.4km/h 4.0mph /  6.4km/h 76% 0.00in /  0mm
08:38 73.2 °F /  22.9 °C 65.2 °F /  18.4 °C 30.09in /  1018.8hPa ESE 4.0mph /  6.4km/h 4.0mph /  6.4km/h 76% 0.00in /  0mm
08:43 73.6 °F /  23.1 °C 65.9 °F /  18.8 °C 30.09in /  1018.8hPa East 5.0mph /  8km/h 5.0mph /  8km/h 77% 0.00in /  0mm
08:48 73.8 °F /  23.2 °C 65.0 °F /  18.3 °C 30.09in /  1018.8hPa ESE 5.0mph /  8km/h 5.0mph /  8km/h 74% 0.00in /  0mm
08:53 74.2 °F /  23.4 °C 65.4 °F /  18.6 °C 30.09in /  1018.8hPa East 4.0mph /  6.4km/h 5.0mph /  8km/h 74% 0.00in /  0mm
08:58 74.6 °F /  23.7 °C 65.4 °F /  18.6 °C 30.09in /  1018.8hPa ENE 4.0mph /  6.4km/h 6.0mph /  9.7km/h 73% 0.00in /  0mm
09:03 74.8 °F /  23.8 °C 66.0 °F /  18.9 °C 30.09in /  1018.8hPa East 2.0mph /  3.2km/h 6.0mph /  9.7km/h 74% 0.00in /  0mm
09:08 75.3 °F /  24.1 °C 65.3 °F /  18.5 °C 30.09in /  1018.8hPa ESE 4.0mph /  6.4km/h 5.0mph /  8km/h 71% 0.00in /  0mm
09:13 75.7 °F /  24.3 °C 66.0 °F /  18.9 °C 30.09in /  1018.8hPa SE 4.0mph /  6.4km/h 5.0mph /  8km/h 72% 0.00in /  0mm
09:18 76.2 °F /  24.6 °C 66.9 °F /  19.4 °C 30.09in /  1018.8hPa ENE 3.0mph /  4.8km/h 5.0mph /  8km/h 73% 0.00in /  0mm
09:23 76.2 °F /  24.6 °C 65.7 °F /  18.7 °C 30.10in /  1019.2hPa East 3.0mph /  4.8km/h 6.0mph /  9.7km/h 70% 0.00in /  0mm
09:28 76.1 °F /  24.5 °C 66.0 °F /  18.9 °C 30.09in /  1018.8hPa SE 5.0mph /  8km/h 6.0mph /  9.7km/h 71% 0.00in /  0mm
09:33 76.2 °F /  24.6 °C 65.7 °F /  18.7 °C 30.10in /  1019.2hPa ESE 4.0mph /  6.4km/h 6.0mph /  9.7km/h 70% 0.00in /  0mm
09:38 76.5 °F /  24.7 °C 65.6 °F /  18.7 °C 30.10in /  1019.2hPa SE 5.0mph /  8km/h 5.0mph /  8km/h 69% 0.00in /  0mm
09:43 76.7 °F /  24.8 °C 66.6 °F /  19.2 °C 30.10in /  1019.2hPa SE 4.0mph /  6.4km/h 6.0mph /  9.7km/h 71% 0.00in /  0mm
09:48 76.9 °F /  24.9 °C 66.4 °F /  19.1 °C 30.10in /  1019.2hPa ESE 5.0mph /  8km/h 5.0mph /  8km/h 70% 0.00in /  0mm
09:53 77.3 °F /  25.2 °C 66.3 °F /  19.1 °C 30.10in /  1019.2hPa SSE 5.0mph /  8km/h 6.0mph /  9.7km/h 69% 0.00in /  0mm
09:58 77.8 °F /  25.4 °C 66.0 °F /  18.9 °C 30.10in /  1019.2hPa SSE 5.0mph /  8km/h 5.0mph /  8km/h 67% 0.00in /  0mm
10:03 78.3 °F /  25.7 °C 66.0 °F /  18.9 °C 30.10in /  1019.2hPa East 3.0mph /  4.8km/h 5.0mph /  8km/h 66% 0.00in /  0mm
10:08 78.5 °F /  25.8 °C 65.8 °F /  18.8 °C 30.10in /  1019.2hPa SE 4.0mph /  6.4km/h 6.0mph /  9.7km/h 65% 0.00in /  0mm
10:13 78.7 °F /  25.9 °C 66.8 °F /  19.3 °C 30.10in /  1019.2hPa SSE 3.0mph /  4.8km/h 6.0mph /  9.7km/h 67% 0.00in /  0mm
10:18 79.0 °F /  26.1 °C 65.8 °F /  18.8 °C 30.10in /  1019.2hPa SSW 3.0mph /  4.8km/h 5.0mph /  8km/h 64% 0.00in /  0mm
10:23 79.9 °F /  26.6 °C 66.7 °F /  19.3 °C 30.10in /  1019.2hPa East 2.0mph /  3.2km/h 4.0mph /  6.4km/h 64% 0.00in /  0mm
10:29 80.5 °F /  26.9 °C 66.3 °F /  19.1 °C 30.10in /  1019.2hPa SW 2.0mph /  3.2km/h 4.0mph /  6.4km/h 62% 0.00in /  0mm
10:34 80.8 °F /  27.1 °C 66.6 °F /  19.2 °C 30.10in /  1019.2hPa SSW 5.0mph /  8km/h 6.0mph /  9.7km/h 62% 0.00in /  0mm
10:39 80.9 °F /  27.2 °C 65.2 °F /  18.4 °C 30.10in /  1019.2hPa WSW 2.0mph /  3.2km/h 5.0mph /  8km/h 59% 0.00in /  0mm
10:44 81.4 °F /  27.4 °C 67.1 °F /  19.5 °C 30.10in /  1019.2hPa SW 2.0mph /  3.2km/h 3.0mph /  4.8km/h 62% 0.00in /  0mm
10:49 82.0 °F /  27.8 °C 66.8 °F /  19.3 °C 30.10in /  1019.2hPa SSW 3.0mph /  4.8km/h 4.0mph /  6.4km/h 60% 0.00in /  0mm
10:54 82.3 °F /  27.9 °C 66.6 °F /  19.2 °C 30.10in /  1019.2hPa SSW 4.0mph /  6.4km/h 7.0mph /  11.3km/h 59% 0.00in /  0mm
10:59 82.2 °F /  27.9 °C 65.5 °F /  18.6 °C 30.10in /  1019.2hPa SSE 1.0mph /  1.6km/h 6.0mph /  9.7km/h 57% 0.00in /  0mm
11:04 82.7 °F /  28.2 °C 66.4 °F /  19.1 °C 30.10in /  1019.2hPa SE 5.0mph /  8km/h 5.0mph /  8km/h 58% 0.00in /  0mm
11:09 82.7 °F /  28.2 °C 64.9 °F /  18.3 °C 30.10in /  1019.2hPa WSW 3.0mph /  4.8km/h 6.0mph /  9.7km/h 55% 0.00in /  0mm
11:14 83.0 °F /  28.3 °C 65.2 °F /  18.4 °C 30.10in /  1019.2hPa SSW 5.0mph /  8km/h 6.0mph /  9.7km/h 55% 0.00in /  0mm
11:19 83.0 °F /  28.3 °C 65.2 °F /  18.4 °C 30.10in /  1019.2hPa South 9.0mph /  14.5km/h 9.0mph /  14.5km/h 55% 0.00in /  0mm
11:24 83.0 °F /  28.3 °C 64.7 °F /  18.2 °C 30.10in /  1019.2hPa SSW 7.0mph /  11.3km/h 7.0mph /  11.3km/h 54% 0.00in /  0mm
11:29 82.9 °F /  28.3 °C 64.6 °F /  18.1 °C 30.10in /  1019.2hPa SE 11.0mph /  17.7km/h 11.0mph /  17.7km/h 54% 0.00in /  0mm
11:34 82.3 °F /  27.9 °C 65.1 °F /  18.4 °C 30.10in /  1019.2hPa SE 7.0mph /  11.3km/h 9.0mph /  14.5km/h 56% 0.00in /  0mm
11:39 82.5 °F /  28.1 °C 65.8 °F /  18.8 °C 30.09in /  1018.8hPa SSE 4.0mph /  6.4km/h 6.0mph /  9.7km/h 57% 0.00in /  0mm
11:44 83.0 °F /  28.3 °C 64.1 °F /  17.8 °C 30.09in /  1018.8hPa ESE 3.0mph /  4.8km/h 8.0mph /  12.9km/h 53% 0.00in /  0mm
11:49 83.1 °F /  28.4 °C 65.3 °F /  18.5 °C 30.09in /  1018.8hPa SSE 2.0mph /  3.2km/h 5.0mph /  8km/h 55% 0.00in /  0mm
11:54 83.4 °F /  28.6 °C 65.6 °F /  18.7 °C 30.10in /  1019.2hPa SE 3.0mph /  4.8km/h 8.0mph /  12.9km/h 55% 0.00in /  0mm
11:59 83.7 °F /  28.7 °C 64.8 °F /  18.2 °C 30.10in /  1019.2hPa SSE 5.0mph /  8km/h 10.0mph /  16.1km/h 53% 0.00in /  0mm
12:04 83.8 °F /  28.8 °C 64.9 °F /  18.3 °C 30.10in /  1019.2hPa SW 2.0mph /  3.2km/h 6.0mph /  9.7km/h 53% 0.00in /  0mm
12:09 83.9 °F /  28.8 °C 63.8 °F /  17.7 °C 30.10in /  1019.2hPa South 2.0mph /  3.2km/h 8.0mph /  12.9km/h 51% 0.00in /  0mm
12:14 84.1 °F /  28.9 °C 65.1 °F /  18.4 °C 30.09in /  1018.8hPa ESE 6.0mph /  9.7km/h 9.0mph /  14.5km/h 53% 0.00in /  0mm
12:19 83.9 °F /  28.8 °C 64.9 °F /  18.3 °C 30.09in /  1018.8hPa SW 3.0mph /  4.8km/h 6.0mph /  9.7km/h 53% 0.00in /  0mm
12:24 84.2 °F /  29 °C 64.1 °F /  17.8 °C 30.09in /  1018.8hPa SW 7.0mph /  11.3km/h 7.0mph /  11.3km/h 51% 0.00in /  0mm
12:29 84.7 °F /  29.3 °C 65.1 °F /  18.4 °C 30.09in /  1018.8hPa SE 6.0mph /  9.7km/h 6.0mph /  9.7km/h 52% 0.00in /  0mm
12:34 84.6 °F /  29.2 °C 62.8 °F /  17.1 °C 30.09in /  1018.8hPa East 4.0mph /  6.4km/h 9.0mph /  14.5km/h 48% 0.00in /  0mm
12:39 84.2 °F /  29 °C 64.1 °F /  17.8 °C 30.09in /  1018.8hPa SE 2.0mph /  3.2km/h 2.0mph /  3.2km/h 51% 0.00in /  0mm
12:44 84.6 °F /  29.2 °C 63.9 °F /  17.7 °C 30.09in /  1018.8hPa South 10.0mph /  16.1km/h 10.0mph /  16.1km/h 50% 0.00in /  0mm
12:49 84.5 °F /  29.2 °C 62.7 °F /  17.1 °C 30.09in /  1018.8hPa SSW 2.0mph /  3.2km/h 9.0mph /  14.5km/h 48% 0.00in /  0mm
12:54 84.8 °F /  29.3 °C 64.1 °F /  17.8 °C 30.09in /  1018.8hPa South 5.0mph /  8km/h 8.0mph /  12.9km/h 50% 0.00in /  0mm
12:59 84.8 °F /  29.3 °C 63.0 °F /  17.2 °C 30.09in /  1018.8hPa SSW 4.0mph /  6.4km/h 7.0mph /  11.3km/h 48% 0.00in /  0mm
13:04 84.7 °F /  29.3 °C 62.9 °F /  17.2 °C 30.09in /  1018.8hPa SSW 3.0mph /  4.8km/h 8.0mph /  12.9km/h 48% 0.00in /  0mm
13:09 84.8 °F /  29.3 °C 63.0 °F /  17.2 °C 30.08in /  1018.5hPa SSW 5.0mph /  8km/h 11.0mph /  17.7km/h 48% 0.00in /  0mm
13:14 84.9 °F /  29.4 °C 64.2 °F /  17.9 °C 30.08in /  1018.5hPa SE 4.0mph /  6.4km/h 5.0mph /  8km/h 50% 0.00in /  0mm
13:19 85.2 °F /  29.6 °C 62.7 °F /  17.1 °C 30.08in /  1018.5hPa SE 6.0mph /  9.7km/h 10.0mph /  16.1km/h 47% 0.00in /  0mm
13:24 85.2 °F /  29.6 °C 63.9 °F /  17.7 °C 30.08in /  1018.5hPa SSE 5.0mph /  8km/h 9.0mph /  14.5km/h 49% 0.00in /  0mm
13:29 85.5 °F /  29.7 °C 63.6 °F /  17.6 °C 30.08in /  1018.5hPa SE 3.0mph /  4.8km/h 9.0mph /  14.5km/h 48% 0.00in /  0mm
13:34 85.1 °F /  29.5 °C 62.0 °F /  16.7 °C 30.08in /  1018.5hPa ENE 2.0mph /  3.2km/h 7.0mph /  11.3km/h 46% 0.00in /  0mm
13:39 84.9 °F /  29.4 °C 63.6 °F /  17.6 °C 30.08in /  1018.5hPa SE 3.0mph /  4.8km/h 4.0mph /  6.4km/h 49% 0.00in /  0mm
13:44 85.1 °F /  29.5 °C 63.2 °F /  17.3 °C 30.08in /  1018.5hPa SSE 6.0mph /  9.7km/h 10.0mph /  16.1km/h 48% 0.00in /  0mm
13:49 85.0 °F /  29.4 °C 64.3 °F /  17.9 °C 30.08in /  1018.5hPa SSE 3.0mph /  4.8km/h 9.0mph /  14.5km/h 50% 0.00in /  0mm
13:54 85.4 °F /  29.7 °C 64.7 °F /  18.2 °C 30.07in /  1018.2hPa ENE 1.0mph /  1.6km/h 5.0mph /  8km/h 50% 0.00in /  0mm
13:59 86.1 °F /  30.1 °C 63.5 °F /  17.5 °C 30.07in /  1018.2hPa Calm   4.0mph /  6.4km/h 47% 0.00in /  0mm
14:04 85.9 °F /  29.9 °C 64.0 °F /  17.8 °C 30.07in /  1018.2hPa SE 7.0mph /  11.3km/h 9.0mph /  14.5km/h 48% 0.00in /  0mm
14:09 84.8 °F /  29.3 °C 63.0 °F /  17.2 °C 30.07in /  1018.2hPa Calm   6.0mph /  9.7km/h 48% 0.00in /  0mm
14:14 84.7 °F /  29.3 °C 65.1 °F /  18.4 °C 30.07in /  1018.2hPa SSW 1.0mph /  1.6km/h 5.0mph /  8km/h 52% 0.00in /  0mm
14:19 85.0 °F /  29.4 °C 64.9 °F /  18.3 °C 30.07in /  1018.2hPa ESE 13.0mph /  20.9km/h 13.0mph /  20.9km/h 51% 0.00in /  0mm
14:24 84.7 °F /  29.3 °C 62.9 °F /  17.2 °C 30.07in /  1018.2hPa SE 6.0mph /  9.7km/h 10.0mph /  16.1km/h 48% 0.00in /  0mm
14:29 84.5 °F /  29.2 °C 63.3 °F /  17.4 °C 30.06in /  1017.8hPa ENE 3.0mph /  4.8km/h 10.0mph /  16.1km/h 49% 0.00in /  0mm
14:34 85.3 °F /  29.6 °C 64.6 °F /  18.1 °C 30.06in /  1017.8hPa ESE 8.0mph /  12.9km/h 8.0mph /  12.9km/h 50% 0.00in /  0mm
14:39 85.4 °F /  29.7 °C 63.5 °F /  17.5 °C 30.06in /  1017.8hPa ENE 4.0mph /  6.4km/h 10.0mph /  16.1km/h 48% 0.00in /  0mm
14:44 85.3 °F /  29.6 °C 65.1 °F /  18.4 °C 30.06in /  1017.8hPa ESE 2.0mph /  3.2km/h 7.0mph /  11.3km/h 51% 0.00in /  0mm
14:49 85.6 °F /  29.8 °C 63.1 °F /  17.3 °C 30.06in /  1017.8hPa East 7.0mph /  11.3km/h 10.0mph /  16.1km/h 47% 0.00in /  0mm
14:54 85.5 °F /  29.7 °C 64.2 °F /  17.9 °C 30.05in /  1017.5hPa East 1.0mph /  1.6km/h 8.0mph /  12.9km/h 49% 0.00in /  0mm
15:00 85.9 °F /  29.9 °C 63.3 °F /  17.4 °C 30.05in /  1017.5hPa East 7.0mph /  11.3km/h 9.0mph /  14.5km/h 47% 0.00in /  0mm
15:04 86.3 °F /  30.2 °C 63.7 °F /  17.6 °C 30.05in /  1017.5hPa SSE 7.0mph /  11.3km/h 9.0mph /  14.5km/h 47% 0.00in /  0mm
15:09 86.4 °F /  30.2 °C 63.2 °F /  17.3 °C 30.05in /  1017.5hPa East 10.0mph /  16.1km/h 13.0mph /  20.9km/h 46% 0.00in /  0mm
15:15 86.2 °F /  30.1 °C 62.4 °F /  16.9 °C 30.05in /  1017.5hPa SE 5.0mph /  8km/h 8.0mph /  12.9km/h 45% 0.00in /  0mm
15:20 86.5 °F /  30.3 °C 63.9 °F /  17.7 °C 30.05in /  1017.5hPa ESE 1.0mph /  1.6km/h 8.0mph /  12.9km/h 47% 0.00in /  0mm
15:25 87.0 °F /  30.6 °C 63.7 °F /  17.6 °C 30.05in /  1017.5hPa East 5.0mph /  8km/h 10.0mph /  16.1km/h 46% 0.00in /  0mm
15:30 86.5 °F /  30.3 °C 64.5 °F /  18.1 °C 30.05in /  1017.5hPa ESE 4.0mph /  6.4km/h 9.0mph /  14.5km/h 48% 0.00in /  0mm
15:35 86.7 °F /  30.4 °C 63.5 °F /  17.5 °C 30.04in /  1017.2hPa SE 4.0mph /  6.4km/h 9.0mph /  14.5km/h 46% 0.00in /  0mm
15:40 86.6 °F /  30.3 °C 62.8 °F /  17.1 °C 30.04in /  1017.2hPa Calm   6.0mph /  9.7km/h 45% 0.00in /  0mm
15:45 87.2 °F /  30.7 °C 63.9 °F /  17.7 °C 30.04in /  1017.2hPa ESE 6.0mph /  9.7km/h 6.0mph /  9.7km/h 46% 0.00in /  0mm
15:50 87.0 °F /  30.6 °C 63.1 °F /  17.3 °C 30.04in /  1017.2hPa SE 6.0mph /  9.7km/h 6.0mph /  9.7km/h 45% 0.00in /  0mm
15:55 86.5 °F /  30.3 °C 64.5 °F /  18.1 °C 30.04in /  1017.2hPa ESE 1.0mph /  1.6km/h 8.0mph /  12.9km/h 48% 0.00in /  0mm
16:00 86.5 °F /  30.3 °C 64.5 °F /  18.1 °C 30.04in /  1017.2hPa ESE 7.0mph /  11.3km/h 8.0mph /  12.9km/h 48% 0.00in /  0mm
16:05 86.1 °F /  30.1 °C 62.3 °F /  16.8 °C 30.04in /  1017.2hPa ESE 3.0mph /  4.8km/h 6.0mph /  9.7km/h 45% 0.00in /  0mm
16:10 85.9 °F /  29.9 °C 63.3 °F /  17.4 °C 30.04in /  1017.2hPa East 2.0mph /  3.2km/h 4.0mph /  6.4km/h 47% 0.00in /  0mm
16:15 85.5 °F /  29.7 °C 62.4 °F /  16.9 °C 30.04in /  1017.2hPa Calm   8.0mph /  12.9km/h 46% 0.00in /  0mm
16:20 85.6 °F /  29.8 °C 63.1 °F /  17.3 °C 30.04in /  1017.2hPa ESE 2.0mph /  3.2km/h 5.0mph /  8km/h 47% 0.00in /  0mm
16:25 85.4 °F /  29.7 °C 63.5 °F /  17.5 °C 30.04in /  1017.2hPa SE 3.0mph /  4.8km/h 5.0mph /  8km/h 48% 0.00in /  0mm
16:30 85.6 °F /  29.8 °C 64.3 °F /  17.9 °C 30.03in /  1016.8hPa SE 2.0mph /  3.2km/h 3.0mph /  4.8km/h 49% 0.00in /  0mm
16:35 86.4 °F /  30.2 °C 63.8 °F /  17.7 °C 30.03in /  1016.8hPa West 1.0mph /  1.6km/h 3.0mph /  4.8km/h 47% 0.00in /  0mm
16:40 87.4 °F /  30.8 °C 67.6 °F /  19.8 °C 30.03in /  1016.8hPa SE 3.0mph /  4.8km/h 5.0mph /  8km/h 52% 0.00in /  0mm
16:45 87.4 °F /  30.8 °C 64.1 °F /  17.8 °C 30.02in /  1016.5hPa ENE 3.0mph /  4.8km/h 5.0mph /  8km/h 46% 0.00in /  0mm
16:50 87.5 °F /  30.8 °C 64.2 °F /  17.9 °C 30.02in /  1016.5hPa ESE 7.0mph /  11.3km/h 9.0mph /  14.5km/h 46% 0.00in /  0mm
16:55 87.3 °F /  30.7 °C 64.0 °F /  17.8 °C 30.02in /  1016.5hPa East 2.0mph /  3.2km/h 4.0mph /  6.4km/h 46% 0.00in /  0mm
17:00 87.6 °F /  30.9 °C 63.7 °F /  17.6 °C 30.02in /  1016.5hPa NW 1.0mph /  1.6km/h 7.0mph /  11.3km/h 45% 0.00in /  0mm
17:05 87.8 °F /  31 °C 63.8 °F /  17.7 °C 30.02in /  1016.5hPa SSE 7.0mph /  11.3km/h 7.0mph /  11.3km/h 45% 0.00in /  0mm
17:10 88.1 °F /  31.2 °C 63.5 °F /  17.5 °C 30.02in /  1016.5hPa ESE 5.0mph /  8km/h 7.0mph /  11.3km/h 44% 0.00in /  0mm
17:15 87.9 °F /  31.1 °C 63.3 °F /  17.4 °C 30.02in /  1016.5hPa ESE 5.0mph /  8km/h 8.0mph /  12.9km/h 44% 0.00in /  0mm
17:20 88.0 °F /  31.1 °C 64.7 °F /  18.2 °C 30.02in /  1016.5hPa East 3.0mph /  4.8km/h 9.0mph /  14.5km/h 46% 0.00in /  0mm
17:25 87.5 °F /  30.8 °C 64.2 °F /  17.9 °C 30.02in /  1016.5hPa ENE 5.0mph /  8km/h 6.0mph /  9.7km/h 46% 0.00in /  0mm
17:30 87.3 °F /  30.7 °C 64.6 °F /  18.1 °C 30.02in /  1016.5hPa ESE 2.0mph /  3.2km/h 8.0mph /  12.9km/h 47% 0.00in /  0mm
17:35 86.8 °F /  30.4 °C 63.6 °F /  17.6 °C 30.02in /  1016.5hPa SE 2.0mph /  3.2km/h 7.0mph /  11.3km/h 46% 0.00in /  0mm
17:40 86.5 °F /  30.3 °C 63.3 °F /  17.4 °C 30.01in /  1016.1hPa NE 4.0mph /  6.4km/h 5.0mph /  8km/h 46% 0.00in /  0mm
17:45 87.1 °F /  30.6 °C 63.2 °F /  17.3 °C 30.01in /  1016.1hPa East 5.0mph /  8km/h 10.0mph /  16.1km/h 45% 0.00in /  0mm
17:50 87.5 °F /  30.8 °C 64.8 °F /  18.2 °C 30.01in /  1016.1hPa ENE 2.0mph /  3.2km/h 6.0mph /  9.7km/h 47% 0.00in /  0mm
17:55 87.6 °F /  30.9 °C 63.7 °F /  17.6 °C 30.01in /  1016.1hPa ESE 5.0mph /  8km/h 8.0mph /  12.9km/h 45% 0.00in /  0mm
18:00 87.6 °F /  30.9 °C 64.3 °F /  17.9 °C 30.01in /  1016.1hPa ENE 3.0mph /  4.8km/h 6.0mph /  9.7km/h 46% 0.00in /  0mm
18:05 87.5 °F /  30.8 °C 63.6 °F /  17.6 °C 30.01in /  1016.1hPa SE 5.0mph /  8km/h 6.0mph /  9.7km/h 45% 0.00in /  0mm
18:10 87.0 °F /  30.6 °C 63.7 °F /  17.6 °C 30.01in /  1016.1hPa ESE 3.0mph /  4.8km/h 7.0mph /  11.3km/h 46% 0.00in /  0mm
18:15 86.7 °F /  30.4 °C 64.1 °F /  17.8 °C 30.01in /  1016.1hPa SE 1.0mph /  1.6km/h 3.0mph /  4.8km/h 47% 0.00in /  0mm
18:20 87.1 °F /  30.6 °C 65.6 °F /  18.7 °C 30.00in /  1015.8hPa ESE 6.0mph /  9.7km/h 6.0mph /  9.7km/h 49% 0.00in /  0mm
18:25 86.9 °F /  30.5 °C 64.3 °F /  17.9 °C 30.00in /  1015.8hPa ESE 7.0mph /  11.3km/h 7.0mph /  11.3km/h 47% 0.00in /  0mm
18:30 86.7 °F /  30.4 °C 65.3 °F /  18.5 °C 30.00in /  1015.8hPa SE 5.0mph /  8km/h 6.0mph /  9.7km/h 49% 0.00in /  0mm
18:35 86.6 °F /  30.3 °C 65.2 °F /  18.4 °C 30.00in /  1015.8hPa SE 3.0mph /  4.8km/h 5.0mph /  8km/h 49% 0.00in /  0mm
18:40 86.5 °F /  30.3 °C 63.9 °F /  17.7 °C 30.00in /  1015.8hPa SE 5.0mph /  8km/h 5.0mph /  8km/h 47% 0.00in /  0mm
18:45 86.4 °F /  30.2 °C 64.4 °F /  18 °C 30.00in /  1015.8hPa East 4.0mph /  6.4km/h 6.0mph /  9.7km/h 48% 0.00in /  0mm
18:50 86.4 °F /  30.2 °C 64.4 °F /  18 °C 30.00in /  1015.8hPa SSE 4.0mph /  6.4km/h 5.0mph /  8km/h 48% 0.00in /  0mm
18:55 86.6 °F /  30.3 °C 64.0 °F /  17.8 °C 29.99in /  1015.5hPa East 3.0mph /  4.8km/h 5.0mph /  8km/h 47% 0.00in /  0mm
19:00 86.6 °F /  30.3 °C 64.6 °F /  18.1 °C 30.00in /  1015.8hPa SE 4.0mph /  6.4km/h 5.0mph /  8km/h 48% 0.00in /  0mm
19:05 86.6 °F /  30.3 °C 64.6 °F /  18.1 °C 29.99in /  1015.5hPa ESE 4.0mph /  6.4km/h 5.0mph /  8km/h 48% 0.00in /  0mm
19:11 86.7 °F /  30.4 °C 65.3 °F /  18.5 °C 29.99in /  1015.5hPa East 4.0mph /  6.4km/h 6.0mph /  9.7km/h 49% 0.00in /  0mm
19:16 86.5 °F /  30.3 °C 65.1 °F /  18.4 °C 29.99in /  1015.5hPa ENE 4.0mph /  6.4km/h 6.0mph /  9.7km/h 49% 0.00in /  0mm
19:21 86.5 °F /  30.3 °C 66.2 °F /  19 °C 29.99in /  1015.5hPa ESE 1.0mph /  1.6km/h 4.0mph /  6.4km/h 51% 0.00in /  0mm
19:26 86.6 °F /  30.3 °C 65.8 °F /  18.8 °C 29.99in /  1015.5hPa ESE 3.0mph /  4.8km/h 3.0mph /  4.8km/h 50% 0.00in /  0mm
19:31 86.5 °F /  30.3 °C 66.2 °F /  19 °C 29.99in /  1015.5hPa ESE 2.0mph /  3.2km/h 4.0mph /  6.4km/h 51% 0.00in /  0mm
19:36 86.4 °F /  30.2 °C 66.2 °F /  19 °C 29.99in /  1015.5hPa SE 2.0mph /  3.2km/h 4.0mph /  6.4km/h 51% 0.00in /  0mm
19:41 86.3 °F /  30.2 °C 66.6 °F /  19.2 °C 29.99in /  1015.5hPa ESE 2.0mph /  3.2km/h 4.0mph /  6.4km/h 52% 0.00in /  0mm
19:46 86.2 °F /  30.1 °C 66.0 °F /  18.9 °C 29.99in /  1015.5hPa ESE 3.0mph /  4.8km/h 4.0mph /  6.4km/h 51% 0.00in /  0mm
19:51 86.1 °F /  30.1 °C 67.0 °F /  19.4 °C 29.98in /  1015.1hPa SE 1.0mph /  1.6km/h 4.0mph /  6.4km/h 53% 0.00in /  0mm
19:56 86.0 °F /  30 °C 66.3 °F /  19.1 °C 29.98in /  1015.1hPa SE 3.0mph /  4.8km/h 4.0mph /  6.4km/h 52% 0.00in /  0mm
20:01 85.8 °F /  29.9 °C 67.2 °F /  19.6 °C 29.98in /  1015.1hPa SE 3.0mph /  4.8km/h 3.0mph /  4.8km/h 54% 0.00in /  0mm
20:06 85.5 °F /  29.7 °C 66.4 °F /  19.1 °C 29.98in /  1015.1hPa SE 2.0mph /  3.2km/h 4.0mph /  6.4km/h 53% 0.00in /  0mm
20:11 85.3 °F /  29.6 °C 66.8 °F /  19.3 °C 29.98in /  1015.1hPa SE 3.0mph /  4.8km/h 3.0mph /  4.8km/h 54% 0.00in /  0mm
20:16 85.1 °F /  29.5 °C 67.1 °F /  19.5 °C 29.98in /  1015.1hPa SE 2.0mph /  3.2km/h 3.0mph /  4.8km/h 55% 0.00in /  0mm
20:21 84.8 °F /  29.3 °C 67.4 °F /  19.7 °C 29.98in /  1015.1hPa SE 1.0mph /  1.6km/h 3.0mph /  4.8km/h 56% 0.00in /  0mm
20:26 84.5 °F /  29.2 °C 67.1 °F /  19.5 °C 29.98in /  1015.1hPa SE 2.0mph /  3.2km/h 2.0mph /  3.2km/h 56% 0.00in /  0mm
20:31 84.2 °F /  29 °C 67.8 °F /  19.9 °C 29.98in /  1015.1hPa Calm   1.0mph /  1.6km/h 58% 0.00in /  0mm
20:36 84.0 °F /  28.9 °C 67.7 °F /  19.8 °C 29.98in /  1015.1hPa ESE 1.0mph /  1.6km/h 1.0mph /  1.6km/h 58% 0.00in /  0mm
20:41 83.7 °F /  28.7 °C 68.3 °F /  20.2 °C 29.98in /  1015.1hPa Calm   1.0mph /  1.6km/h 60% 0.00in /  0mm
20:46 83.3 °F /  28.5 °C 68.0 °F /  20 °C 29.98in /  1015.1hPa ESE 1.0mph /  1.6km/h 1.0mph /  1.6km/h 60% 0.00in /  0mm
20:51 82.9 °F /  28.3 °C 68.6 °F /  20.3 °C 29.98in /  1015.1hPa Calm   1.0mph /  1.6km/h 62% 0.00in /  0mm
20:56 82.1 °F /  27.8 °C 68.3 °F /  20.2 °C 29.98in /  1015.1hPa Calm     63% 0.00in /  0mm
21:01 81.3 °F /  27.4 °C 68.4 °F /  20.2 °C 29.98in /  1015.1hPa Calm     65% 0.00in /  0mm
21:06 80.4 °F /  26.9 °C 68.0 °F /  20 °C 29.98in /  1015.1hPa Calm     66% 0.00in /  0mm
21:11 79.8 °F /  26.6 °C 68.3 °F /  20.2 °C 29.98in /  1015.1hPa Calm   1.0mph /  1.6km/h 68% 0.00in /  0mm
21:16 79.2 °F /  26.2 °C 68.2 °F /  20.1 °C 29.98in /  1015.1hPa Calm   1.0mph /  1.6km/h 69% 0.00in /  0mm
21:21 78.6 °F /  25.9 °C 68.0 °F /  20 °C 29.99in /  1015.5hPa Calm     70% 0.00in /  0mm
21:26 78.3 °F /  25.7 °C 67.7 °F /  19.8 °C 29.98in /  1015.1hPa Calm   1.0mph /  1.6km/h 70% 0.00in /  0mm
21:31 78.4 °F /  25.8 °C 67.8 °F /  19.9 °C 29.98in /  1015.1hPa Calm   1.0mph /  1.6km/h 70% 0.00in /  0mm
21:36 78.3 °F /  25.7 °C 67.7 °F /  19.8 °C 29.98in /  1015.1hPa Calm     70% 0.00in /  0mm
21:41 78.0 °F /  25.6 °C 67.8 °F /  19.9 °C 29.98in /  1015.1hPa Calm     71% 0.00in /  0mm
21:47 77.2 °F /  25.1 °C 67.5 °F /  19.7 °C 29.98in /  1015.1hPa Calm     72% 0.00in /  0mm
21:52 76.4 °F /  24.7 °C 67.1 °F /  19.5 °C 29.98in /  1015.1hPa Calm     73% 0.00in /  0mm
21:57 75.9 °F /  24.4 °C 67.4 °F /  19.7 °C 29.99in /  1015.5hPa Calm     75% 0.00in /  0mm
22:02 75.8 °F /  24.3 °C 67.3 °F /  19.6 °C 29.99in /  1015.5hPa Calm     75% 0.00in /  0mm
22:07 75.6 °F /  24.2 °C 67.1 °F /  19.5 °C 29.99in /  1015.5hPa Calm     75% 0.00in /  0mm
22:12 75.2 °F /  24 °C 66.7 °F /  19.3 °C 29.98in /  1015.1hPa Calm     75% 0.00in /  0mm
22:17 74.7 °F /  23.7 °C 66.6 °F /  19.2 °C 29.99in /  1015.5hPa Calm     76% 0.00in /  0mm
22:22 74.4 °F /  23.6 °C 67.1 °F /  19.5 °C 29.99in /  1015.5hPa Calm     78% 0.00in /  0mm
22:27 74.1 °F /  23.4 °C 66.8 °F /  19.3 °C 29.99in /  1015.5hPa Calm     78% 0.00in /  0mm
22:32 73.7 °F /  23.2 °C 66.8 °F /  19.3 °C 29.99in /  1015.5hPa Calm     79% 0.00in /  0mm
22:37 73.5 °F /  23.1 °C 67.0 °F /  19.4 °C 29.99in /  1015.5hPa Calm     80% 0.00in /  0mm
22:42 73.5 °F /  23.1 °C 66.6 °F /  19.2 °C 30.00in /  1015.8hPa Calm     79% 0.00in /  0mm
22:47 73.2 °F /  22.9 °C 66.7 °F /  19.3 °C 30.00in /  1015.8hPa Calm     80% 0.00in /  0mm
22:52 72.8 °F /  22.7 °C 66.6 °F /  19.2 °C 30.00in /  1015.8hPa Calm     81% 0.00in /  0mm
22:57 72.9 °F /  22.7 °C 66.7 °F /  19.3 °C 30.00in /  1015.8hPa Calm   1.0mph /  1.6km/h 81% 0.00in /  0mm
23:02 72.9 °F /  22.7 °C 66.7 °F /  19.3 °C 30.00in /  1015.8hPa Calm     81% 0.00in /  0mm
23:07 72.7 °F /  22.6 °C 66.5 °F /  19.2 °C 30.00in /  1015.8hPa Calm     81% 0.00in /  0mm
23:12 72.9 °F /  22.7 °C 67.1 °F /  19.5 °C 30.00in /  1015.8hPa Calm     82% 0.00in /  0mm
23:17 73.1 °F /  22.8 °C 66.9 °F /  19.4 °C 30.00in /  1015.8hPa Calm   1.0mph /  1.6km/h 81% 0.00in /  0mm
23:22 73.5 °F /  23.1 °C 67.3 °F /  19.6 °C 30.00in /  1015.8hPa ESE 1.0mph /  1.6km/h 1.0mph /  1.6km/h 81% 0.00in /  0mm
23:27 73.7 °F /  23.2 °C 67.2 °F /  19.6 °C 30.00in /  1015.8hPa Calm     80% 0.00in /  0mm
23:32 73.5 °F /  23.1 °C 67.0 °F /  19.4 °C 30.00in /  1015.8hPa ESE 1.0mph /  1.6km/h 2.0mph /  3.2km/h 80% 0.00in /  0mm
23:37 73.4 °F /  23 °C 66.9 °F /  19.4 °C 30.00in /  1015.8hPa Calm     80% 0.00in /  0mm
23:42 73.1 °F /  22.8 °C 66.6 °F /  19.2 °C 30.00in /  1015.8hPa Calm     80% 0.00in /  0mm
23:47 73.2 °F /  22.9 °C 66.7 °F /  19.3 °C 30.00in /  1015.8hPa Calm   1.0mph /  1.6km/h 80% 0.00in /  0mm
23:52 73.2 °F /  22.9 °C 66.3 °F /  19.1 °C 30.00in /  1015.8hPa Calm   1.0mph /  1.6km/h 79% 0.00in /  0mm
23:57 73.0 °F /  22.8 °C 66.5 °F /  19.2 °C 30.00in /  1015.8hPa Calm     80% 0.00in /  0mm
Compliments of Weather Underground